Time;durP1;ratioP1;P1;durP2;ratioP2;P2;SDS_P1;SDS_P2;PMS_P1;PMS_P2;Temp;Humidity;BMP_temperature;BMP_pressure;BME280_temperature;BME280_humidity;BME280_pressure;Samples;Min_cycle;Max_cycle;Signal;HPM_P1;HPM_P2
2023/03/02 00:02:21;;;;;;;8.73;6.20;;;;;;;1.34;65.88;102339.63;5276213;28;20039;-74
2023/03/02 00:04:53;;;;;;;;;;;;;;;1.71;64.05;102341.41;5277907;28;20107;-74
2023/03/02 00:07:30;;;;;;;9.10;6.03;;;;;;;0.98;67.83;102336.03;5287030;28;19923;-74
2023/03/02 00:10:02;;;;;;;11.10;5.90;;;;;;;0.76;68.59;102333.34;5275701;28;20035;-74
2023/03/02 00:12:34;;;;;;;12.60;5.97;;;;;;;0.72;68.27;102335.91;5277321;28;20020;-73
2023/03/02 00:15:07;;;;;;;8.50;6.40;;;;;;;1.07;68.00;102339.50;5288109;28;20024;-73
2023/03/02 00:17:38;;;;;;;8.43;6.40;;;;;;;0.66;68.34;102329.84;5276235;28;20078;-73
2023/03/02 00:20:10;;;;;;;12.77;6.57;;;;;;;0.47;69.46;102322.84;5275947;28;20028;-73
2023/03/02 00:22:43;;;;;;;10.23;6.70;;;;;;;0.80;69.62;102335.09;5276127;28;20036;-72
2023/03/02 00:25:16;;;;;;;7.47;6.00;;;;;;;0.52;69.16;102320.31;5275101;28;20029;-72
2023/03/02 00:27:48;;;;;;;8.47;6.00;;;;;;;0.71;68.44;102326.44;5287779;28;20523;-72
2023/03/02 00:30:19;;;;;;;11.27;6.20;;;;;;;0.88;69.40;102330.81;5272343;28;20286;-72
2023/03/02 00:32:51;;;;;;;10.37;6.90;;;;;;;0.77;69.96;102330.75;5284271;28;20440;-73
2023/03/02 00:35:22;;;;;;;11.33;6.70;;;;;;;0.65;70.22;102339.28;5276520;28;20089;-73
2023/03/02 00:37:53;;;;;;;9.73;5.53;;;;;;;0.96;68.75;102331.72;5281168;28;20530;-72
2023/03/02 00:40:24;;;;;;;10.60;6.83;;;;;;;0.69;69.43;102343.63;5287369;28;20028;-72
2023/03/02 00:42:56;;;;;;;12.80;5.97;;;;;;;0.48;69.58;102340.06;5270998;28;20050;-72
2023/03/02 00:45:27;;;;;;;12.03;5.87;;;;;;;0.46;69.92;102343.47;5298653;28;20031;-72
2023/03/02 00:47:58;;;;;;;13.43;7.00;;;;;;;0.34;70.12;102341.66;5294633;28;20063;-72
2023/03/02 00:50:30;;;;;;;9.90;6.53;;;;;;;0.63;70.62;102333.25;5285051;28;20022;-72
2023/03/02 00:53:03;;;;;;;11.70;6.50;;;;;;;0.46;70.02;102326.28;5297941;28;20443;-72
2023/03/02 00:55:36;;;;;;;14.50;7.00;;;;;;;0.42;70.13;102334.00;5283020;28;20115;-72
2023/03/02 00:58:07;;;;;;;9.83;6.80;;;;;;;0.38;70.04;102327.97;5289276;28;20028;-73
2023/03/02 01:00:39;;;;;;;8.63;6.13;;;;;;;0.72;69.75;102330.75;5297058;28;20040;-73
2023/03/02 01:03:10;;;;;;;10.03;6.53;;;;;;;0.34;70.09;102321.03;5289239;28;20067;-73
2023/03/02 01:05:42;;;;;;;9.93;6.37;;;;;;;0.44;71.37;102338.31;5281816;28;20035;-72
2023/03/02 01:08:13;;;;;;;13.83;6.17;;;;;;;0.33;70.76;102337.38;5299148;28;20499;-72
2023/03/02 01:10:44;;;;;;;11.50;6.50;;;;;;;0.54;70.32;102328.06;5291865;28;20020;-72
2023/03/02 01:13:15;;;;;;;10.23;6.53;;;;;;;0.63;70.40;102322.94;5286987;28;20068;-72
2023/03/02 01:15:47;;;;;;;15.27;6.30;;;;;;;0.47;70.83;102322.84;5279621;28;20033;-72
2023/03/02 01:18:18;;;;;;;9.03;6.73;;;;;;;0.18;71.04;102315.78;5300429;28;20899;-73
2023/03/02 01:20:59;;;;;;;11.97;6.63;;;;;;;0.38;70.68;102320.22;5285660;28;20480;-73
2023/03/02 01:23:30;;;;;;;8.57;6.20;;;;;;;0.56;70.96;102310.91;5280841;28;20028;-73
2023/03/02 01:26:02;;;;;;;10.40;6.30;;;;;;;0.35;70.92;102318.47;5283948;28;20283;-73
2023/03/02 01:28:34;;;;;;;12.53;6.37;;;;;;;0.34;70.55;102311.59;5279163;28;20036;-73
2023/03/02 01:31:05;;;;;;;10.07;6.17;;;;;;;0.63;70.48;102314.38;5295348;28;20087;-73
2023/03/02 01:33:36;;;;;;;11.07;5.83;;;;;;;0.69;69.98;102301.50;5283080;28;20024;-73
2023/03/02 01:36:08;;;;;;;11.80;6.43;;;;;;;0.71;69.82;102307.53;5291162;28;20032;-74
2023/03/02 01:38:39;;;;;;;12.97;6.30;;;;;;;0.88;69.37;102296.41;5295099;28;20027;-74
2023/03/02 01:41:11;;;;;;;9.17;6.43;;;;;;;0.96;68.87;102311.06;5265491;28;20128;-73
2023/03/02 01:43:42;;;;;;;11.83;6.60;;;;;;;0.89;69.35;102309.31;5280083;28;20030;-73
2023/03/02 01:46:23;;;;;;;9.67;7.27;;;;;;;0.67;69.78;102300.63;5295163;28;20032;-73
2023/03/02 01:49:10;;;;;;;11.20;6.63;;;;;;;0.56;69.95;102287.69;5300110;28;20056;-73
2023/03/02 01:51:45;;;;;;;17.97;7.30;;;;;;;0.39;70.62;102282.41;5265846;28;20287;-73
2023/03/02 01:54:21;;;;;;;10.27;6.57;;;;;;;0.60;69.99;102302.31;5277717;28;20507;-73
2023/03/02 01:56:59;;;;;;;10.10;6.13;;;;;;;0.55;70.16;102288.53;5286373;28;20077;-73
2023/03/02 01:59:32;;;;;;;9.37;6.80;;;;;;;0.68;70.46;102300.63;5282457;28;20292;-73
2023/03/02 02:02:07;;;;;;;10.43;7.60;;;;;;;0.26;71.49;102282.34;5261889;28;20551;-73
2023/03/02 02:04:41;;;;;;;11.73;6.70;;;;;;;0.25;72.29;102296.06;5266103;28;20063;-73
2023/03/02 02:07:13;;;;;;;10.40;7.40;;;;;;;0.16;73.01;102294.28;5252975;28;20064;-73
2023/03/02 02:09:48;;;;;;;10.87;7.20;;;;;;;0.13;72.83;102286.53;5278499;28;20709;-72
2023/03/02 02:12:22;;;;;;;10.20;6.83;;;;;;;0.30;72.66;102285.78;5264848;28;20115;-73
2023/03/02 02:14:59;;;;;;;9.15;6.05;;;;;;;0.31;72.28;102283.25;5287465;28;20040;-73
2023/03/02 02:17:31;;;;;;;14.67;8.57;;;;;;;0.49;73.04;102289.34;5257506;28;20419;-73
2023/03/02 02:20:26;;;;;;;10.00;7.00;;;;;;;0.50;73.26;102291.09;5265498;28;20027;-73
2023/03/02 02:23:28;;;;;;;9.70;6.43;;;;;;;0.46;72.94;102285.03;5277530;28;20740;-73
2023/03/02 02:26:17;;;;;;;12.30;7.40;;;;;;;0.60;72.68;102287.69;5282866;28;20115;-72
2023/03/02 02:28:59;;;;;;;12.10;7.80;;;;;;;0.62;73.52;102273.94;5261662;28;20032;-73
2023/03/02 02:31:43;;;;;;;14.20;8.40;;;;;;;0.70;73.30;102269.69;5289638;28;20282;-73
2023/03/02 02:34:21;;;;;;;12.37;8.03;;;;;;;0.80;71.98;102283.50;5277966;28;20281;-73
2023/03/02 02:36:58;;;;;;;11.67;7.47;;;;;;;0.80;71.61;102270.59;5298963;28;20437;-73
2023/03/02 02:39:34;;;;;;;9.07;7.10;;;;;;;0.67;72.49;102275.69;5294165;28;20120;-73
2023/03/02 02:42:12;;;;;;;11.60;7.27;;;;;;;0.80;71.70;102262.88;5286062;28;20836;-73
2023/03/02 02:44:44;;;;;;;12.00;6.93;;;;;;;0.84;71.59;102269.75;5293594;28;20282;-73
2023/03/02 02:47:18;;;;;;;14.80;7.00;;;;;;;0.55;73.28;102261.03;5294305;28;20284;-73
2023/03/02 02:49:51;;;;;;;;;;;;;;;0.80;71.10;102268.03;5281569;28;20038;-73
2023/03/02 02:52:26;;;;;;;10.90;7.77;;;;;;;0.71;72.40;102266.25;5285065;28;19912;-73
2023/03/02 02:54:58;;;;;;;12.50;8.80;;;;;;;0.75;73.17;102265.41;5282883;28;20288;-73
2023/03/02 02:57:30;;;;;;;13.43;8.77;;;;;;;0.67;73.43;102259.34;5287403;28;20278;-73
2023/03/02 03:00:03;;;;;;;11.73;8.67;;;;;;;0.78;74.06;102262.00;5277549;28;20049;-73
2023/03/02 03:02:42;;;;;;;14.23;9.33;;;;;;;0.65;73.96;102264.50;5277842;28;20051;-73
2023/03/02 03:05:14;;;;;;;13.97;10.10;;;;;;;0.58;74.90;102261.03;5277272;28;20035;-73
2023/03/02 03:07:45;;;;;;;14.27;10.00;;;;;;;0.26;76.35;102264.31;5286273;28;20294;-74
2023/03/02 03:10:33;;;;;;;14.83;10.30;;;;;;;0.42;76.35;102246.34;5298480;28;20523;-73
2023/03/02 03:13:07;;;;;;;15.20;10.90;;;;;;;0.52;77.61;102268.75;5293626;28;20017;-74
2023/03/02 03:15:38;;;;;;;15.40;11.43;;;;;;;0.34;78.46;102256.59;5294163;28;20298;-73
2023/03/02 03:18:09;;;;;;;16.77;12.10;;;;;;;0.65;77.65;102264.50;5259222;28;20017;-74
2023/03/02 03:20:41;;;;;;;18.77;12.23;;;;;;;0.33;80.09;102254.91;5278234;28;20403;-74
2023/03/02 03:23:12;;;;;;;19.30;12.73;;;;;;;0.47;79.67;102258.41;5291671;28;20115;-74
2023/03/02 03:25:43;;;;;;;21.37;14.17;;;;;;;0.45;81.01;102256.69;5294322;28;20074;-74
2023/03/02 03:28:15;;;;;;;25.27;14.50;;;;;;;0.10;83.35;102250.44;5281712;28;20032;-74
2023/03/02 03:30:46;;;;;;;20.07;15.03;;;;;;;0.35;82.82;102253.16;5278315;28;20121;-72
2023/03/02 03:33:17;;;;;;;21.97;15.10;;;;;;;0.20;86.45;102251.38;5262354;28;20067;-72
2023/03/02 03:35:52;;;;;;;25.23;16.37;;;;;;;0.10;87.69;102247.88;5279580;28;20051;-73
2023/03/02 03:38:23;;;;;;;24.63;16.85;;;;;;;0.29;87.04;102246.28;5276114;28;20028;-73
2023/03/02 03:40:54;;;;;;;27.03;18.97;;;;;;;-0.15;90.02;102251.13;5276402;28;20086;-72
2023/03/02 03:43:26;;;;;;;28.53;18.37;;;;;;;-0.20;90.86;102257.09;5292733;28;20419;-73
2023/03/02 03:45:57;;;;;;;27.37;19.47;;;;;;;-0.18;91.82;102256.25;5276617;28;20035;-73
2023/03/02 03:48:28;;;;;;;29.13;19.77;;;;;;;-0.35;88.43;102260.41;5287499;28;20115;-72
2023/03/02 03:51:00;;;;;;;28.07;19.87;;;;;;;-0.46;89.16;102243.16;5297478;28;20016;-74
2023/03/02 03:53:31;;;;;;;30.00;21.27;;;;;;;-0.21;88.12;102245.91;5286118;28;20035;-73
2023/03/02 03:56:03;;;;;;;31.20;21.70;;;;;;;-0.34;88.60;102250.09;5279514;28;20479;-73
2023/03/02 03:58:34;;;;;;;30.07;21.30;;;;;;;-0.25;89.55;102255.34;5297381;28;20028;-73
2023/03/02 04:01:05;;;;;;;28.57;20.33;;;;;;;0.06;88.14;102265.03;5295105;28;20031;-73
2023/03/02 04:03:37;;;;;;;35.63;23.20;;;;;;;-0.07;89.05;102263.22;5277166;28;20106;-73
2023/03/02 04:06:17;;;;;;;32.93;23.07;;;;;;;-0.19;89.96;102263.97;5288053;28;20056;-73
2023/03/02 04:08:48;;;;;;;33.83;22.67;;;;;;;-0.06;90.35;102255.50;5275469;28;20027;-73
2023/03/02 04:11:20;;;;;;;34.30;22.37;;;;;;;0.09;89.44;102259.00;5276051;28;20267;-73
2023/03/02 04:13:51;;;;;;;36.80;23.67;;;;;;;0.09;89.21;102259.00;5257706;28;20434;-73
2023/03/02 04:16:23;;;;;;;35.47;24.33;;;;;;;-0.08;90.10;102261.47;5275797;28;20032;-73
2023/03/02 04:18:54;;;;;;;32.50;24.43;;;;;;;-0.09;89.32;102249.44;5276381;28;20565;-73
2023/03/02 04:21:27;;;;;;;37.90;24.50;;;;;;;-0.16;91.78;102258.84;5276151;28;20048;-73
2023/03/02 04:23:58;;;;;;;33.73;25.00;;;;;;;0.12;89.82;102246.19;5277626;28;20423;-73
2023/03/02 04:26:29;;;;;;;36.80;25.27;;;;;;;0.10;90.72;102253.03;5289987;28;20274;-73
2023/03/02 04:29:01;;;;;;;33.87;24.63;;;;;;;0.12;89.76;102248.75;5277167;28;20090;-73
2023/03/02 04:31:33;;;;;;;37.17;24.67;;;;;;;0.23;89.27;102259.97;5295357;28;20510;-73
2023/03/02 04:34:06;;;;;;;37.33;25.37;;;;;;;0.03;90.31;102251.25;5272751;28;20082;-73
2023/03/02 04:36:38;;;;;;;35.30;25.30;;;;;;;0.19;89.81;102260.81;5291062;28;20056;-73
2023/03/02 04:39:13;;;;;;;35.17;25.33;;;;;;;0.11;91.66;102260.75;5295603;28;20288;-73
2023/03/02 04:41:45;;;;;;;34.83;25.25;;;;;;;-0.06;92.99;102255.50;5291701;28;20290;-73
2023/03/02 04:44:17;;;;;;;36.93;26.33;;;;;;;-0.14;93.20;102255.41;5292017;28;20039;-74
2023/03/02 04:46:49;;;;;;;40.40;27.10;;;;;;;0.05;91.12;102244.41;5259959;28;20286;-73
2023/03/02 04:49:20;;;;;;;38.33;25.33;;;;;;;-0.03;91.75;102247.78;5257894;28;20123;-74
2023/03/02 04:51:51;;;;;;;38.73;25.73;;;;;;;-0.04;91.55;102240.03;5279176;28;20028;-74
2023/03/02 04:54:25;;;;;;;37.50;25.87;;;;;;;0.19;90.24;102250.50;5278889;28;20035;-74
2023/03/02 04:56:57;;;;;;;32.67;22.73;;;;;;;0.08;90.02;102254.72;5276811;28;20028;-74
2023/03/02 04:59:28;;;;;;;39.27;24.60;;;;;;;0.04;90.54;102256.41;5280669;28;20048;-74
2023/03/02 05:02:00;;;;;;;36.97;23.60;;;;;;;0.08;89.88;102241.84;5261520;28;20492;-73
2023/03/02 05:04:32;;;;;;;35.37;24.83;;;;;;;0.21;89.77;102250.53;5288709;28;20045;-73
2023/03/02 05:07:04;;;;;;;35.03;24.63;;;;;;;-0.04;91.26;102256.38;5282891;28;20107;-73
2023/03/02 05:09:35;;;;;;;32.50;23.27;;;;;;;-0.10;90.50;102250.28;5295668;28;20377;-73
2023/03/02 05:12:06;;;;;;;38.93;24.47;;;;;;;0.12;90.35;102264.22;5290758;28;20063;-73
2023/03/02 05:14:38;;;;;;;39.70;26.00;;;;;;;-0.30;92.88;102240.69;5262145;28;20136;-73
2023/03/02 05:17:09;;;;;;;37.97;26.00;;;;;;;-0.04;91.28;102258.94;5294431;28;20023;-74
2023/03/02 05:19:40;;;;;;;33.97;23.90;;;;;;;-0.10;92.16;102253.72;5297225;28;20032;-74
2023/03/02 05:22:12;;;;;;;39.93;27.43;;;;;;;-0.28;91.74;102259.63;5288723;28;20559;-73
2023/03/02 05:24:43;;;;;;;36.50;25.53;;;;;;;0.05;90.90;102262.44;5290024;28;20118;-73
2023/03/02 05:27:14;;;;;;;35.63;24.53;;;;;;;0.08;90.80;102257.31;5282486;28;20509;-74
2023/03/02 05:29:46;;;;;;;35.10;23.63;;;;;;;0.16;90.05;102255.63;5300371;28;20016;-73
2023/03/02 05:32:17;;;;;;;38.17;25.57;;;;;;;-0.02;90.83;102252.06;5281502;28;20040;-73
2023/03/02 05:34:48;;;;;;;35.13;23.50;;;;;;;0.20;90.02;102261.66;5292896;28;20140;-73
2023/03/02 05:37:20;;;;;;;35.33;25.43;;;;;;;0.12;89.79;102261.63;5299596;28;20038;-73
2023/03/02 05:39:51;;;;;;;37.83;25.30;;;;;;;0.18;88.96;102259.09;5295134;28;20387;-73
2023/03/02 05:42:23;;;;;;;38.27;26.47;;;;;;;0.12;89.92;102259.06;5300588;28;20047;-72
2023/03/02 05:44:54;;;;;;;35.87;24.67;;;;;;;-0.06;89.03;102234.88;5284519;28;20566;-73
2023/03/02 05:47:26;;;;;;;35.47;24.73;;;;;;;0.08;89.98;102253.03;5278680;28;20171;-73
2023/03/02 05:49:58;;;;;;;42.33;27.57;;;;;;;0.23;89.53;102256.53;5279268;28;20372;-73
2023/03/02 05:52:29;;;;;;;41.60;27.53;;;;;;;0.08;89.30;102247.88;5281185;28;20027;-74
2023/03/02 05:55:00;;;;;;;41.00;27.23;;;;;;;-0.33;92.23;102256.97;5282249;28;20282;-74
2023/03/02 05:57:32;;;;;;;42.43;28.07;;;;;;;-0.10;93.31;102253.72;5278687;28;20456;-74
2023/03/02 06:00:05;;;;;;;48.40;29.20;;;;;;;-0.06;92.97;102255.50;5260679;28;20032;-73
2023/03/02 06:02:38;;;;;;;41.67;27.33;;;;;;;-0.29;93.65;102263.00;5279119;28;20320;-73
2023/03/02 06:05:15;;;;;;;42.17;26.53;;;;;;;-0.12;93.92;102255.44;5295311;28;20305;-73
2023/03/02 06:07:47;;;;;;;44.40;27.30;;;;;;;-0.04;93.21;102258.94;5281183;28;20855;-73
2023/03/02 06:10:18;;;;;;;40.90;26.83;;;;;;;-0.09;94.35;102260.63;5299510;28;20061;-73
2023/03/02 06:12:49;;;;;;;43.43;28.53;;;;;;;-0.29;96.09;102248.44;5281669;28;20024;-72
2023/03/02 06:15:21;;;;;;;41.97;28.37;;;;;;;-0.11;94.91;102246.88;5278233;28;20036;-73
2023/03/02 06:17:52;;;;;;;42.83;30.13;;;;;;;-0.25;96.43;102249.34;5289858;28;20488;-73
2023/03/02 06:20:24;;;;;;;44.67;29.53;;;;;;;-0.21;94.86;102257.94;5278400;28;20472;-74
2023/03/02 06:22:55;;;;;;;49.03;31.37;;;;;;;-0.21;96.76;102251.06;5277298;28;20442;-75
2023/03/02 06:25:27;;;;;;;43.63;28.40;;;;;;;-0.37;97.34;102262.97;5284955;28;20115;-74
2023/03/02 06:27:58;;;;;;;49.53;30.87;;;;;;;-0.15;97.50;102263.13;5277943;28;20472;-73
2023/03/02 06:30:29;;;;;;;47.43;31.13;;;;;;;-0.16;97.38;102266.56;5277777;28;20025;-73
2023/03/02 06:33:01;;;;;;;46.60;30.50;;;;;;;-0.20;98.40;102269.97;5278124;28;20029;-73
2023/03/02 06:35:33;;;;;;;43.37;28.77;;;;;;;-0.14;97.87;102272.59;5277980;28;20086;-73
2023/03/02 06:38:04;;;;;;;51.83;32.63;;;;;;;-0.45;100.00;102264.56;5276338;28;20017;-73
2023/03/02 06:40:36;;;;;;;50.37;32.57;;;;;;;-0.31;100.00;102275.88;5277657;28;20352;-73
2023/03/02 06:43:07;;;;;;;52.57;33.50;;;;;;;-0.22;100.00;102280.25;5277825;28;20108;-73
2023/03/02 06:45:39;;;;;;;50.57;31.63;;;;;;;-0.55;100.00;102276.50;5277934;28;20086;-73
2023/03/02 06:48:10;;;;;;;47.50;31.87;;;;;;;-0.30;100.00;102277.63;5277823;28;20082;-73
2023/03/02 06:50:41;;;;;;;53.67;32.03;;;;;;;-0.58;100.00;102281.63;5278985;28;20028;-74
2023/03/02 06:53:14;;;;;;;53.10;34.20;;;;;;;-0.33;100.00;102275.00;5274723;28;20027;-73
2023/03/02 06:55:51;;;;;;;54.50;35.13;;;;;;;-0.57;100.00;102261.06;5274641;28;20028;-73
2023/03/02 06:58:22;;;;;;;51.63;31.10;;;;;;;-0.51;100.00;102289.41;5284603;28;20626;-74
2023/03/02 07:00:54;;;;;;;52.53;32.30;;;;;;;-0.42;100.00;102277.50;5280752;28;20304;-74
2023/03/02 07:03:25;;;;;;;54.70;32.87;;;;;;;-0.71;100.00;102289.22;5260390;28;20028;-74
2023/03/02 07:05:56;;;;;;;51.77;32.60;;;;;;;-0.69;100.00;102284.06;5293483;28;20441;-74
2023/03/02 07:08:28;;;;;;;55.47;31.97;;;;;;;-0.68;100.00;102283.25;5294816;28;20028;-74
2023/03/02 07:11:03;;;;;;;53.40;33.53;;;;;;;-0.50;100.00;102287.72;5295137;28;20107;-74
2023/03/02 07:13:37;;;;;;;53.27;31.80;;;;;;;-0.38;100.00;102274.09;5284412;28;20100;-74
2023/03/02 07:16:10;;;;;;;50.33;30.57;;;;;;;-0.42;100.00;102290.38;5276660;28;20278;-74
2023/03/02 07:18:41;;;;;;;45.37;30.47;;;;;;;-0.39;100.00;102285.25;5289646;28;20381;-74
2023/03/02 07:21:13;;;;;;;52.90;32.83;;;;;;;-0.55;100.00;102291.94;5275768;28;20322;-73
2023/03/02 07:23:44;;;;;;;53.60;31.60;;;;;;;-0.62;100.00;102291.91;5288086;28;20073;-73
2023/03/02 07:26:15;;;;;;;52.93;31.80;;;;;;;-0.68;100.00;102281.53;5281890;28;20111;-73
2023/03/02 07:28:47;;;;;;;54.30;32.53;;;;;;;-0.53;100.00;102291.13;5278450;28;20511;-73
2023/03/02 07:31:19;;;;;;;55.63;34.00;;;;;;;-0.53;100.00;102285.13;5280088;28;20020;-73
2023/03/02 07:33:51;;;;;;;52.63;31.90;;;;;;;-0.18;100.00;102296.59;5279056;28;20033;-73
2023/03/02 07:36:22;;;;;;;59.60;32.37;;;;;;;-0.37;100.00;102304.16;5275356;28;20588;-73
2023/03/02 07:38:53;;;;;;;53.00;30.27;;;;;;;-0.34;100.00;102281.00;5256053;28;20036;-73
2023/03/02 07:41:25;;;;;;;49.27;31.33;;;;;;;-0.44;100.00;102279.19;5275679;28;20151;-73
2023/03/02 07:43:56;;;;;;;88.47;34.00;;;;;;;-0.22;100.00;102302.56;5276648;28;20020;-73
2023/03/02 07:46:28;;;;;;;58.97;31.63;;;;;;;-0.34;100.00;102291.31;5276355;28;20028;-73
2023/03/02 07:48:59;;;;;;;51.00;30.77;;;;;;;-0.43;100.00;102283.47;5202219;28;20032;-73
2023/03/02 07:51:31;;;;;;;54.53;29.73;;;;;;;-0.25;100.00;102290.53;5265940;28;20021;-73
2023/03/02 07:54:03;;;;;;;56.23;31.47;;;;;;;-0.16;100.00;102295.75;5270254;28;20031;-74
2023/03/02 07:56:35;;;;;;;52.80;31.37;;;;;;;-0.14;100.00;102282.91;5284419;28;20027;-74
2023/03/02 07:59:06;;;;;;;48.20;28.77;;;;;;;-0.16;100.00;102290.59;5275641;28;20290;-71
2023/03/02 08:01:38;;;;;;;44.63;27.80;;;;;;;0.12;100.00;102302.88;5273252;28;20507;-72
2023/03/02 08:04:09;;;;;;;65.20;30.40;;;;;;;0.06;100.00;102289.91;5254510;28;20032;-72
2023/03/02 08:06:40;;;;;;;50.00;31.57;;;;;;;0.10;100.00;102297.69;5284813;28;20024;-72
2023/03/02 08:09:12;;;;;;;50.87;29.60;;;;;;;0.34;100.00;102298.72;5268934;28;20032;-73
2023/03/02 08:11:43;;;;;;;52.00;30.47;;;;;;;0.29;100.00;102284.06;5267956;28;20089;-72
2023/03/02 08:14:15;;;;;;;57.57;30.00;;;;;;;0.58;100.00;102298.84;5268620;28;20030;-72
2023/03/02 08:16:46;;;;;;;46.53;28.97;;;;;;;0.51;100.00;102284.22;5275935;28;20032;-73
2023/03/02 08:19:18;;;;;;;47.07;27.73;;;;;;;0.70;100.00;102298.03;5274783;28;20397;-73
2023/03/02 08:21:49;;;;;;;48.07;28.97;;;;;;;0.94;99.97;102302.47;5272072;28;20039;-73
2023/03/02 08:24:21;;;;;;;42.27;26.80;;;;;;;0.90;98.91;102290.44;5291033;28;20024;-72
2023/03/02 08:26:52;;;;;;;41.60;26.37;;;;;;;1.04;97.10;102287.91;5290335;28;20070;-73
2023/03/02 08:29:23;;;;;;;41.53;27.23;;;;;;;1.17;94.56;102288.78;5291475;28;20035;-72
2023/03/02 08:31:55;;;;;;;45.77;27.30;;;;;;;1.22;93.99;102300.84;5291583;28;20034;-72
2023/03/02 08:34:26;;;;;;;41.37;26.57;;;;;;;1.45;95.17;102294.03;5272687;28;20048;-72
2023/03/02 08:36:58;;;;;;;37.80;24.63;;;;;;;1.63;90.35;102302.66;5275463;28;20064;-72
2023/03/02 08:39:30;;;;;;;39.63;26.23;;;;;;;1.55;90.69;102286.31;5290338;28;20056;-72
2023/03/02 08:42:02;;;;;;;37.73;24.93;;;;;;;1.73;89.77;102295.78;5290406;28;20073;-72
2023/03/02 08:44:33;;;;;;;44.57;25.13;;;;;;;1.71;87.93;102276.84;5294279;28;20031;-73
2023/03/02 08:47:05;;;;;;;43.40;26.60;;;;;;;1.81;87.30;102281.16;5286182;28;20030;-74
2023/03/02 08:49:39;;;;;;;36.17;23.20;;;;;;;2.05;86.27;102294.94;5279827;28;20123;-73
2023/03/02 08:52:12;;;;;;;35.83;21.92;;;;;;;1.85;82.36;102296.66;5276291;28;20429;-73
2023/03/02 08:54:44;;;;;;;34.17;21.40;;;;;;;1.86;80.95;102290.63;5279191;28;20043;-73
2023/03/02 08:57:15;;;;;;;34.27;21.87;;;;;;;1.83;81.57;102288.06;5278980;28;20040;-73
2023/03/02 08:59:46;;;;;;;37.30;23.10;;;;;;;1.99;80.74;102287.19;5279770;28;20040;-73
2023/03/02 09:02:18;;;;;;;34.27;21.83;;;;;;;2.23;79.06;102284.59;5282946;28;20036;-73
2023/03/02 09:04:49;;;;;;;36.20;21.17;;;;;;;2.11;78.74;102281.13;5283954;28;20586;-73
2023/03/02 09:07:21;;;;;;;32.67;21.50;;;;;;;2.42;78.22;102278.53;5282031;28;20028;-72
2023/03/02 09:09:52;;;;;;;39.70;20.50;;;;;;;2.61;76.54;102277.59;5268022;28;20141;-73
2023/03/02 09:12:23;;;;;;;39.87;23.07;;;;;;;2.75;75.29;102280.16;5266192;28;20096;-73
2023/03/02 09:14:54;;;;;;;38.00;21.30;;;;;;;3.09;74.47;102269.63;5284286;28;20032;-73
2023/03/02 09:17:26;;;;;;;29.93;20.13;;;;;;;3.04;73.66;102261.03;5265154;28;20097;-73
2023/03/02 09:19:59;;;;;;;34.57;20.33;;;;;;;3.19;72.38;102265.28;5281777;28;20807;-72
2023/03/02 09:22:30;;;;;;;33.03;18.63;;;;;;;3.79;70.37;102270.91;5283048;28;20043;-73
2023/03/02 09:25:03;;;;;;;37.77;21.47;;;;;;;3.53;69.84;102266.78;5282637;28;20376;-73
2023/03/02 09:27:34;;;;;;;27.33;18.80;;;;;;;3.81;68.12;102270.88;5284464;28;20031;-73
2023/03/02 09:30:07;;;;;;;31.47;18.83;;;;;;;4.10;67.04;102273.22;5282455;28;20028;-73
2023/03/02 09:32:39;;;;;;;34.93;20.63;;;;;;;4.08;68.18;102262.03;5295458;28;20065;-73
2023/03/02 09:35:10;;;;;;;29.63;20.07;;;;;;;4.34;67.22;102278.19;5293609;28;20027;-73
2023/03/02 09:37:42;;;;;;;27.37;17.53;;;;;;;4.51;65.67;102269.34;5272983;28;20020;-73
2023/03/02 09:40:21;;;;;;;29.20;18.90;;;;;;;4.70;64.67;102272.59;5274002;28;20113;-73
2023/03/02 09:43:17;;;;;;;30.37;18.17;;;;;;;4.86;63.50;102275.00;5290712;28;20077;-73
2023/03/02 09:46:02;;;;;;;27.23;17.57;;;;;;;5.25;62.95;102275.38;5276449;28;20065;-73
2023/03/02 09:48:39;;;;;;;;;;;;;;;5.46;62.83;102260.34;5292867;28;20025;-73
2023/03/02 09:51:19;;;;;;;25.67;18.17;;;;;;;5.55;60.87;102260.19;5290700;28;20003;-73
2023/03/02 09:54:14;;;;;;;28.23;17.67;;;;;;;5.88;59.77;102264.84;5292814;28;20016;-73
2023/03/02 09:56:48;;;;;;;27.15;16.60;;;;;;;5.87;58.29;102251.88;5292262;28;20028;-72
2023/03/02 09:59:52;;;;;;;25.95;17.58;;;;;;;6.38;58.85;102261.41;5294377;28;20108;-72
2023/03/02 10:02:31;;;;;;;23.70;16.17;;;;;;;6.76;57.50;102247.66;5253852;28;20044;-73
2023/03/02 10:05:07;;;;;;;27.17;17.43;;;;;;;6.63;56.54;102254.88;5293695;28;20035;-73
2023/03/02 10:07:39;;;;;;;20.60;14.40;;;;;;;6.48;52.05;102240.41;5291549;28;20107;-73
2023/03/02 10:10:32;;;;;;;22.10;13.77;;;;;;;7.49;50.74;102251.22;5292466;28;20020;-73
2023/03/02 10:13:25;;;;;;;20.93;15.13;;;;;;;8.07;47.42;102256.75;5292510;28;20035;-74
2023/03/02 10:15:56;;;;;;;20.37;13.57;;;;;;;8.42;48.93;102254.97;5274897;28;20126;-73
2023/03/02 10:18:35;;;;;;;21.57;14.47;;;;;;;8.89;48.10;102251.03;5291760;28;20044;-73
2023/03/02 10:21:32;;;;;;;21.33;14.63;;;;;;;9.15;47.58;102251.13;5291481;28;20073;-73
2023/03/02 10:24:15;;;;;;;22.63;14.17;;;;;;;9.32;48.62;102259.31;5293120;28;20445;-72
2023/03/02 10:26:52;;;;;;;20.17;14.10;;;;;;;9.10;45.42;102247.81;5292471;28;20423;-73
2023/03/02 10:29:30;;;;;;;18.57;11.97;;;;;;;9.45;46.85;102243.22;5275388;28;20032;-72
2023/03/02 10:32:23;;;;;;;20.67;13.10;;;;;;;9.54;44.44;102239.47;5291362;28;20035;-72
2023/03/02 10:34:55;;;;;;;18.57;12.87;;;;;;;8.99;42.99;102256.00;5274106;28;20122;-73
2023/03/02 10:37:30;;;;;;;17.33;12.10;;;;;;;8.20;45.23;102247.69;5271545;28;20799;-72
2023/03/02 10:40:01;;;;;;;17.57;13.17;;;;;;;7.70;45.15;102245.53;5291513;28;20039;-73
2023/03/02 10:42:39;;;;;;;24.67;13.03;;;;;;;7.56;46.88;102246.72;5291538;28;20032;-73
2023/03/02 10:45:22;;;;;;;18.27;13.67;;;;;;;6.78;48.21;102228.50;5290813;28;20024;-73
2023/03/02 10:47:59;;;;;;;17.77;11.47;;;;;;;6.67;48.60;102248.69;5293232;28;20082;-72
2023/03/02 10:50:31;;;;;;;18.27;12.47;;;;;;;6.69;48.39;102233.91;5290989;28;20291;-73
2023/03/02 10:53:06;;;;;;;17.17;12.17;;;;;;;6.46;48.43;102235.22;5291327;28;20916;-73
2023/03/02 10:55:44;;;;;;;17.20;11.47;;;;;;;6.76;49.59;102234.63;5290628;28;20031;-72
2023/03/02 10:58:21;;;;;;;17.43;12.83;;;;;;;6.77;49.39;102237.19;5273307;28;20101;-73
2023/03/02 11:01:16;;;;;;;21.53;14.67;;;;;;;6.62;50.11;102221.91;5272987;28;20044;-72
2023/03/02 11:03:55;;;;;;;;;;;;;;;6.80;51.09;102230.22;5293415;28;20047;-73
2023/03/02 11:06:28;;;;;;;19.37;13.47;;;;;;;6.73;50.04;102240.78;5290805;28;19946;-73
2023/03/02 11:09:05;;;;;;;18.40;12.90;;;;;;;6.87;50.26;102231.81;5290972;28;20024;-73
2023/03/02 11:11:36;;;;;;;17.33;12.57;;;;;;;6.82;50.60;102212.81;5286347;28;20015;-73
2023/03/02 11:14:14;;;;;;;18.77;12.47;;;;;;;6.83;50.98;102230.13;5291185;28;20040;-73
2023/03/02 11:16:46;;;;;;;24.37;14.47;;;;;;;6.60;50.26;102223.66;5287264;28;20767;-73
2023/03/02 11:19:32;;;;;;;26.77;13.47;;;;;;;6.93;51.12;102220.41;5290402;28;20028;-73
2023/03/02 11:22:15;;;;;;;19.87;13.53;;;;;;;7.13;50.02;102226.03;5289950;28;20047;-72
2023/03/02 11:24:52;;;;;;;19.33;12.03;;;;;;;6.88;49.39;102217.88;5289905;28;20093;-72
2023/03/02 11:27:29;;;;;;;21.07;14.77;;;;;;;7.03;50.24;102193.25;5288729;28;21397;-72
2023/03/02 11:30:21;;;;;;;19.87;13.40;;;;;;;7.31;51.06;102212.59;5290041;28;20415;-71
2023/03/02 11:33:01;;;;;;;19.70;14.13;;;;;;;7.24;51.51;102214.50;5293059;28;20100;-72
2023/03/02 11:35:57;;;;;;;20.83;14.30;;;;;;;7.48;52.14;102214.78;5290270;28;20077;-72
2023/03/02 11:38:31;;;;;;;;;;;;;;;7.58;52.14;102208.44;5288716;28;20047;-72
2023/03/02 11:41:27;;;;;;;24.10;14.73;;;;;;;7.38;52.30;102211.56;5289141;28;19920;-72
2023/03/02 11:44:14;;;;;;;20.90;15.30;;;;;;;7.36;52.96;102198.56;5290446;28;20031;-73
2023/03/02 11:46:58;;;;;;;24.53;16.20;;;;;;;7.55;52.05;102202.44;5288281;28;20475;-73
2023/03/02 11:49:38;;;;;;;22.45;15.07;;;;;;;7.42;51.97;102199.31;5288261;28;20589;-72